AZO955 UCFM-URMT
Flight info
| Callsign | AZO955 |
|---|---|
| Flight time | 3h 39m |
| Altitude | 36000 |
| Route | BASAN1 BASAN L147 TOMGO Z370 RISAS L855 KZO L139 TISRA/K0832F380 L139 ATR L988 OBATA G487 ROKMO B967 DOBEK A924 DIPOR DIPOR1M |
| Aircraft | B738/M-SDE2E3FGHIRWXY/LB1 |
Departure
| Time | 2026-04-26 10:37 |
|---|---|
| Airport | Manas International Airport (UCFM) |
Arrival
| Time | 2026-04-26 14:17 |
|---|---|
| Airport | Stavropol Shpakovskoye Airport (URMT) |
| Time | Latitude | Longitude | Altitude | Speed | Heading |
|---|---|---|---|---|---|
| 2026-04-26 10:11 | 43.05720 | 74.46835 | 2068 ft | 0 kts | 173° |
| 2026-04-26 10:27 | 43.05733 | 74.46833 | 2068 ft | 3 kts | 167° |
| 2026-04-26 10:27 | 43.05756 | 74.46824 | 2068 ft | 3 kts | 157° |
| 2026-04-26 10:27 | 43.05775 | 74.46808 | 2068 ft | 3 kts | 133° |
| 2026-04-26 10:27 | 43.05786 | 74.46783 | 2068 ft | 3 kts | 102° |
| 2026-04-26 10:28 | 43.05788 | 74.46753 | 2068 ft | 3 kts | 84° |
| 2026-04-26 10:28 | 43.05786 | 74.46734 | 2068 ft | 2 kts | 80° |
| 2026-04-26 10:28 | 43.05784 | 74.46719 | 2068 ft | 2 kts | 77° |
| 2026-04-26 10:28 | 43.05782 | 74.46707 | 2068 ft | 0 kts | 76° |
| 2026-04-26 10:30 | 43.05782 | 74.46710 | 2068 ft | 1 kts | 76° |
| 2026-04-26 10:30 | 43.05787 | 74.46737 | 2068 ft | 0 kts | 78° |
| 2026-04-26 10:30 | 43.05791 | 74.46762 | 2068 ft | 6 kts | 78° |
| 2026-04-26 10:31 | 43.05800 | 74.46840 | 2068 ft | 11 kts | 81° |
| 2026-04-26 10:31 | 43.05814 | 74.46967 | 2068 ft | 16 kts | 81° |
| 2026-04-26 10:31 | 43.05833 | 74.47138 | 2068 ft | 20 kts | 81° |
| 2026-04-26 10:31 | 43.05860 | 74.47347 | 2068 ft | 24 kts | 79° |
| 2026-04-26 10:32 | 43.05880 | 74.47474 | 2068 ft | 16 kts | 77° |
| 2026-04-26 10:32 | 43.05902 | 74.47638 | 2068 ft | 19 kts | 81° |
| 2026-04-26 10:32 | 43.05927 | 74.47839 | 2067 ft | 23 kts | 80° |
| 2026-04-26 10:32 | 43.05969 | 74.48155 | 2068 ft | 28 kts | 80° |
| 2026-04-26 10:33 | 43.05989 | 74.48310 | 2068 ft | 18 kts | 80° |
| 2026-04-26 10:33 | 43.06018 | 74.48485 | 2068 ft | 17 kts | 50° |
| 2026-04-26 10:33 | 43.06107 | 74.48615 | 2067 ft | 19 kts | 49° |
| 2026-04-26 10:33 | 43.06128 | 74.48649 | 2067 ft | 0 kts | 50° |
| 2026-04-26 10:34 | 43.06140 | 74.48668 | 2067 ft | 5 kts | 50° |
| 2026-04-26 10:34 | 43.06177 | 74.48728 | 2067 ft | 11 kts | 50° |
| 2026-04-26 10:34 | 43.06239 | 74.48829 | 2065 ft | 17 kts | 52° |
| 2026-04-26 10:34 | 43.06283 | 74.48994 | 2066 ft | 20 kts | 81° |
| 2026-04-26 10:35 | 43.06310 | 74.49205 | 2066 ft | 24 kts | 80° |
| 2026-04-26 10:35 | 43.06341 | 74.49442 | 2069 ft | 27 kts | 80° |
| 2026-04-26 10:35 | 43.06373 | 74.49702 | 2070 ft | 29 kts | 80° |
| 2026-04-26 10:35 | 43.06412 | 74.49987 | 2070 ft | 30 kts | 78° |
| 2026-04-26 10:36 | 43.06408 | 74.50171 | 2069 ft | 18 kts | 115° |
| 2026-04-26 10:36 | 43.06417 | 74.50280 | 2069 ft | 11 kts | 10° |
| 2026-04-26 10:36 | 43.06444 | 74.50204 | 2069 ft | 11 kts | 261° |
| 2026-04-26 10:36 | 43.06413 | 74.49970 | 2070 ft | 55 kts | 259° |
| 2026-04-26 10:37 | 43.06301 | 74.49102 | 2067 ft | 129 kts | 260° |
| 2026-04-26 10:37 | 43.06106 | 74.47605 | 2072 ft | 189 kts | 259° |
| 2026-04-26 10:37 | 43.05853 | 74.45699 | 2545 ft | 210 kts | 260° |
| 2026-04-26 10:37 | 43.05712 | 74.43711 | 3326 ft | 210 kts | 285° |
| 2026-04-26 10:38 | 43.06252 | 74.41976 | 4435 ft | 192 kts | 294° |
| 2026-04-26 10:38 | 43.06756 | 74.40295 | 5132 ft | 194 kts | 293° |
| 2026-04-26 10:38 | 43.07289 | 74.38486 | 5423 ft | 216 kts | 293° |
| 2026-04-26 10:38 | 43.07873 | 74.36520 | 5612 ft | 236 kts | 292° |
| 2026-04-26 10:39 | 43.08662 | 74.34439 | 5857 ft | 251 kts | 312° |
| 2026-04-26 10:39 | 43.09960 | 74.32874 | 6352 ft | 254 kts | 328° |
| 2026-04-26 10:39 | 43.11542 | 74.31796 | 6935 ft | 254 kts | 336° |
| 2026-04-26 10:39 | 43.13183 | 74.30893 | 7469 ft | 255 kts | 338° |
| 2026-04-26 10:40 | 43.14872 | 74.29991 | 7975 ft | 259 kts | 337° |
| 2026-04-26 10:40 | 43.16523 | 74.29100 | 8562 ft | 258 kts | 336° |
| 2026-04-26 10:40 | 43.17394 | 74.28624 | 8827 ft | 259 kts | 336° |
| 2026-04-26 10:40 | 43.18254 | 74.28154 | 9087 ft | 260 kts | 336° |
| 2026-04-26 10:41 | 43.19934 | 74.27231 | 9604 ft | 262 kts | 335° |
| 2026-04-26 10:41 | 43.21672 | 74.26266 | 9888 ft | 278 kts | 335° |
| 2026-04-26 10:41 | 43.23498 | 74.25244 | 10240 ft | 292 kts | 335° |
| 2026-04-26 10:41 | 43.25454 | 74.24149 | 10370 ft | 314 kts | 335° |
| 2026-04-26 10:42 | 43.27537 | 74.22978 | 10558 ft | 333 kts | 335° |
| 2026-04-26 10:42 | 43.29742 | 74.21734 | 10703 ft | 352 kts | 335° |
| 2026-04-26 10:42 | 43.32049 | 74.20422 | 11003 ft | 364 kts | 334° |
| 2026-04-26 10:42 | 43.34202 | 74.18583 | 11459 ft | 366 kts | 318° |
| 2026-04-26 10:43 | 43.36130 | 74.16280 | 12050 ft | 368 kts | 316° |
| 2026-04-26 10:43 | 43.38047 | 74.13924 | 12618 ft | 372 kts | 316° |
| 2026-04-26 10:43 | 43.39995 | 74.11531 | 13187 ft | 376 kts | 316° |
| 2026-04-26 10:43 | 43.41960 | 74.09136 | 13778 ft | 380 kts | 316° |
| 2026-04-26 10:44 | 43.43960 | 74.06718 | 14307 ft | 384 kts | 317° |
| 2026-04-26 10:44 | 43.45972 | 74.04299 | 14872 ft | 386 kts | 317° |
| 2026-04-26 10:44 | 43.47982 | 74.01886 | 15463 ft | 388 kts | 317° |
| 2026-04-26 10:44 | 43.50026 | 73.99431 | 16052 ft | 391 kts | 317° |
| 2026-04-26 10:45 | 43.52079 | 73.96965 | 16610 ft | 394 kts | 317° |
| 2026-04-26 10:45 | 43.54156 | 73.94468 | 17165 ft | 397 kts | 317° |
| 2026-04-26 10:45 | 43.56256 | 73.91941 | 17722 ft | 401 kts | 317° |
| 2026-04-26 10:45 | 43.58344 | 73.89392 | 18267 ft | 404 kts | 316° |
| 2026-04-26 10:46 | 43.60405 | 73.86741 | 18760 ft | 406 kts | 315° |
| 2026-04-26 10:46 | 43.62460 | 73.84054 | 19308 ft | 407 kts | 315° |
| 2026-04-26 10:46 | 43.64522 | 73.81366 | 19846 ft | 409 kts | 315° |
| 2026-04-26 10:46 | 43.66602 | 73.78667 | 20337 ft | 411 kts | 314° |
| 2026-04-26 10:47 | 43.68444 | 73.75649 | 20778 ft | 412 kts | 302° |
| 2026-04-26 10:47 | 43.69828 | 73.72198 | 21259 ft | 413 kts | 293° |
| 2026-04-26 10:47 | 43.70748 | 73.68423 | 21702 ft | 414 kts | 283° |
| 2026-04-26 10:47 | 43.71384 | 73.64535 | 22136 ft | 417 kts | 282° |
| 2026-04-26 10:48 | 43.71988 | 73.60603 | 22541 ft | 419 kts | 282° |
| 2026-04-26 10:48 | 43.72589 | 73.56630 | 22955 ft | 422 kts | 282° |
| 2026-04-26 10:48 | 43.73196 | 73.52658 | 23364 ft | 424 kts | 282° |
| 2026-04-26 10:48 | 43.73814 | 73.48667 | 23729 ft | 426 kts | 282° |
| 2026-04-26 10:49 | 43.74442 | 73.44656 | 24084 ft | 428 kts | 282° |
| 2026-04-26 10:49 | 43.75070 | 73.40676 | 24437 ft | 429 kts | 282° |
| 2026-04-26 10:49 | 43.75717 | 73.36579 | 24780 ft | 431 kts | 282° |
| 2026-04-26 10:49 | 43.76348 | 73.32589 | 25122 ft | 432 kts | 282° |
| 2026-04-26 10:50 | 43.76993 | 73.28510 | 25457 ft | 433 kts | 282° |
| 2026-04-26 10:50 | 43.77418 | 73.25811 | 25671 ft | 434 kts | 282° |
| 2026-04-26 10:50 | 43.78277 | 73.20346 | 26086 ft | 437 kts | 282° |
| 2026-04-26 10:50 | 43.78924 | 73.16215 | 26400 ft | 438 kts | 282° |
| 2026-04-26 10:51 | 43.79570 | 73.12086 | 26697 ft | 440 kts | 282° |
| 2026-04-26 10:51 | 43.80861 | 73.03788 | 27297 ft | 442 kts | 282° |
| 2026-04-26 10:51 | 43.81507 | 72.99621 | 27585 ft | 444 kts | 282° |
| 2026-04-26 10:52 | 43.82155 | 72.95435 | 27872 ft | 445 kts | 282° |
| 2026-04-26 10:52 | 43.82802 | 72.91240 | 28169 ft | 446 kts | 282° |
| 2026-04-26 10:52 | 43.83446 | 72.87052 | 28578 ft | 444 kts | 282° |
| 2026-04-26 10:52 | 43.84086 | 72.82880 | 29063 ft | 441 kts | 282° |
| 2026-04-26 10:53 | 43.84724 | 72.78713 | 29523 ft | 438 kts | 282° |
| 2026-04-26 10:53 | 43.85351 | 72.74604 | 29909 ft | 437 kts | 282° |
| 2026-04-26 10:53 | 43.85979 | 72.70480 | 30236 ft | 437 kts | 282° |
| 2026-04-26 10:54 | 43.87229 | 72.62242 | 30821 ft | 436 kts | 282° |
| 2026-04-26 10:54 | 43.87847 | 72.58151 | 31117 ft | 435 kts | 282° |
| 2026-04-26 10:54 | 43.88459 | 72.54092 | 31390 ft | 435 kts | 282° |
| 2026-04-26 10:54 | 43.89075 | 72.49988 | 31656 ft | 435 kts | 282° |
| 2026-04-26 10:55 | 43.89690 | 72.45892 | 31931 ft | 434 kts | 282° |
| 2026-04-26 10:55 | 43.90303 | 72.41790 | 32223 ft | 433 kts | 281° |
| 2026-04-26 10:55 | 43.90911 | 72.37712 | 32497 ft | 433 kts | 281° |
| 2026-04-26 10:55 | 43.91519 | 72.33625 | 32755 ft | 433 kts | 281° |
| 2026-04-26 10:56 | 43.92126 | 72.29534 | 33031 ft | 432 kts | 281° |
| 2026-04-26 10:56 | 43.92731 | 72.25447 | 33305 ft | 432 kts | 281° |
| 2026-04-26 10:56 | 43.93332 | 72.21380 | 33561 ft | 431 kts | 281° |
| 2026-04-26 10:56 | 43.93931 | 72.17308 | 33826 ft | 431 kts | 281° |
| 2026-04-26 10:57 | 43.94531 | 72.13222 | 34066 ft | 430 kts | 281° |
| 2026-04-26 10:57 | 43.95126 | 72.09162 | 34283 ft | 430 kts | 281° |
| 2026-04-26 10:57 | 43.95722 | 72.05082 | 34488 ft | 429 kts | 281° |
| 2026-04-26 10:57 | 43.96311 | 72.01035 | 34690 ft | 429 kts | 281° |
| 2026-04-26 10:58 | 43.96903 | 71.96969 | 34892 ft | 429 kts | 281° |
| 2026-04-26 10:58 | 43.97491 | 71.92915 | 35083 ft | 429 kts | 281° |
| 2026-04-26 10:58 | 43.98071 | 71.88904 | 35288 ft | 428 kts | 281° |
| 2026-04-26 10:58 | 43.98660 | 71.84810 | 35476 ft | 428 kts | 281° |
| 2026-04-26 10:59 | 43.99235 | 71.80802 | 35641 ft | 428 kts | 281° |
| 2026-04-26 10:59 | 43.99814 | 71.76748 | 35821 ft | 428 kts | 281° |
| 2026-04-26 10:59 | 44.00393 | 71.72683 | 36002 ft | 427 kts | 281° |
| 2026-04-26 10:59 | 44.00968 | 71.68637 | 36006 ft | 431 kts | 281° |
| 2026-04-26 11:00 | 44.02126 | 71.60460 | 36019 ft | 431 kts | 281° |
| 2026-04-26 11:00 | 44.03274 | 71.52315 | 36016 ft | 426 kts | 281° |
| 2026-04-26 11:01 | 44.04403 | 71.44259 | 36028 ft | 423 kts | 281° |
| 2026-04-26 11:01 | 44.05519 | 71.36248 | 36027 ft | 422 kts | 280° |
| 2026-04-26 11:02 | 44.06630 | 71.28240 | 36033 ft | 421 kts | 280° |
| 2026-04-26 11:02 | 44.07732 | 71.20245 | 36040 ft | 422 kts | 280° |
| 2026-04-26 11:03 | 44.08837 | 71.12178 | 36039 ft | 428 kts | 280° |
| 2026-04-26 11:03 | 44.09952 | 71.04019 | 36038 ft | 430 kts | 280° |
| 2026-04-26 11:04 | 44.11058 | 70.95868 | 36037 ft | 432 kts | 280° |
| 2026-04-26 11:04 | 44.12175 | 70.87615 | 36039 ft | 432 kts | 280° |
| 2026-04-26 11:05 | 44.13274 | 70.79457 | 36043 ft | 430 kts | 280° |
| 2026-04-26 11:05 | 44.14367 | 70.71292 | 36045 ft | 428 kts | 280° |
| 2026-04-26 11:06 | 44.15269 | 70.64527 | 36049 ft | 426 kts | 280° |
| 2026-04-26 11:06 | 44.16523 | 70.55060 | 36048 ft | 423 kts | 279° |
| 2026-04-26 11:07 | 44.17583 | 70.47009 | 36054 ft | 421 kts | 279° |
| 2026-04-26 11:07 | 44.18633 | 70.38997 | 36052 ft | 420 kts | 279° |
| 2026-04-26 11:08 | 44.19680 | 70.31016 | 36055 ft | 418 kts | 279° |
| 2026-04-26 11:08 | 44.20722 | 70.23055 | 36059 ft | 418 kts | 279° |
| 2026-04-26 11:09 | 44.21760 | 70.15081 | 36064 ft | 418 kts | 279° |
| 2026-04-26 11:09 | 44.22787 | 70.07140 | 36064 ft | 419 kts | 279° |
| 2026-04-26 11:10 | 44.23814 | 69.99151 | 36067 ft | 420 kts | 279° |
| 2026-04-26 11:10 | 44.24839 | 69.91125 | 36069 ft | 421 kts | 279° |
| 2026-04-26 11:11 | 44.25862 | 69.83076 | 36073 ft | 421 kts | 279° |
| 2026-04-26 11:11 | 44.26880 | 69.75016 | 36074 ft | 422 kts | 279° |
| 2026-04-26 11:12 | 44.27894 | 69.66940 | 36078 ft | 423 kts | 278° |
| 2026-04-26 11:12 | 44.28904 | 69.58854 | 36078 ft | 423 kts | 278° |
| 2026-04-26 11:13 | 44.29901 | 69.50814 | 36083 ft | 423 kts | 278° |
| 2026-04-26 11:13 | 44.30899 | 69.42728 | 36083 ft | 422 kts | 278° |
| 2026-04-26 11:14 | 44.31888 | 69.34659 | 36084 ft | 421 kts | 278° |
| 2026-04-26 11:14 | 44.32704 | 69.27964 | 36087 ft | 420 kts | 278° |
| 2026-04-26 11:15 | 44.33839 | 69.18597 | 36089 ft | 418 kts | 278° |
| 2026-04-26 11:15 | 44.34802 | 69.10598 | 36092 ft | 417 kts | 278° |
| 2026-04-26 11:16 | 44.35752 | 69.02650 | 36095 ft | 416 kts | 278° |
| 2026-04-26 11:16 | 44.36701 | 68.94684 | 36099 ft | 415 kts | 278° |
| 2026-04-26 11:17 | 44.37637 | 68.86736 | 36101 ft | 414 kts | 277° |
| 2026-04-26 11:17 | 44.38562 | 68.78778 | 36102 ft | 414 kts | 277° |
| 2026-04-26 11:18 | 44.39480 | 68.70828 | 36112 ft | 414 kts | 277° |
| 2026-04-26 11:18 | 44.40393 | 68.62881 | 36112 ft | 414 kts | 277° |
| 2026-04-26 11:19 | 44.41300 | 68.54941 | 36116 ft | 414 kts | 277° |
| 2026-04-26 11:19 | 44.42202 | 68.46986 | 36117 ft | 414 kts | 277° |
| 2026-04-26 11:20 | 44.42949 | 68.40365 | 36119 ft | 414 kts | 277° |
| 2026-04-26 11:20 | 44.43840 | 68.32422 | 36121 ft | 414 kts | 277° |
| 2026-04-26 11:21 | 44.44728 | 68.24460 | 36128 ft | 413 kts | 277° |
| 2026-04-26 11:21 | 44.45597 | 68.16507 | 36128 ft | 413 kts | 276° |
| 2026-04-26 11:22 | 44.46425 | 68.08598 | 36130 ft | 413 kts | 276° |
| 2026-04-26 11:22 | 44.47250 | 68.00653 | 36133 ft | 412 kts | 276° |
| 2026-04-26 11:23 | 44.48072 | 67.92724 | 36133 ft | 411 kts | 276° |
| 2026-04-26 11:23 | 44.48890 | 67.84785 | 36135 ft | 411 kts | 276° |
| 2026-04-26 11:24 | 44.49699 | 67.76882 | 36139 ft | 410 kts | 276° |
| 2026-04-26 11:24 | 44.50505 | 67.68961 | 36141 ft | 410 kts | 276° |
| 2026-04-26 11:25 | 44.51302 | 67.61067 | 36145 ft | 409 kts | 276° |
| 2026-04-26 11:25 | 44.52091 | 67.53211 | 36146 ft | 409 kts | 276° |
| 2026-04-26 11:26 | 44.52900 | 67.45340 | 36149 ft | 409 kts | 276° |
| 2026-04-26 11:26 | 44.53717 | 67.37448 | 36153 ft | 408 kts | 276° |
| 2026-04-26 11:27 | 44.54523 | 67.29581 | 36153 ft | 408 kts | 276° |
| 2026-04-26 11:27 | 44.55323 | 67.21706 | 36168 ft | 408 kts | 275° |
| 2026-04-26 11:28 | 44.56117 | 67.13826 | 36167 ft | 408 kts | 275° |
| 2026-04-26 11:28 | 44.56906 | 67.05945 | 36165 ft | 408 kts | 275° |
| 2026-04-26 11:29 | 44.57689 | 66.98060 | 36162 ft | 408 kts | 275° |
| 2026-04-26 11:29 | 44.58466 | 66.90176 | 36165 ft | 408 kts | 275° |
| 2026-04-26 11:30 | 44.59107 | 66.83633 | 36171 ft | 407 kts | 275° |
| 2026-04-26 11:30 | 44.59998 | 66.74485 | 36199 ft | 406 kts | 273° |
| 2026-04-26 11:31 | 44.60753 | 66.66636 | 36169 ft | 405 kts | 273° |
| 2026-04-26 11:31 | 44.61502 | 66.58821 | 36174 ft | 403 kts | 272° |
| 2026-04-26 11:32 | 44.62164 | 66.51040 | 36177 ft | 400 kts | 272° |
| 2026-04-26 11:32 | 44.62790 | 66.43301 | 36178 ft | 399 kts | 272° |
| 2026-04-26 11:33 | 44.63415 | 66.35577 | 36176 ft | 397 kts | 272° |
| 2026-04-26 11:33 | 44.64040 | 66.27867 | 36182 ft | 397 kts | 272° |
| 2026-04-26 11:34 | 44.64657 | 66.20208 | 36182 ft | 397 kts | 272° |
| 2026-04-26 11:34 | 44.65274 | 66.12488 | 36185 ft | 398 kts | 272° |
| 2026-04-26 11:35 | 44.65888 | 66.04739 | 36190 ft | 399 kts | 272° |
| 2026-04-26 11:35 | 44.66499 | 65.96967 | 36191 ft | 401 kts | 272° |
| 2026-04-26 11:36 | 44.67106 | 65.89173 | 36190 ft | 402 kts | 272° |
| 2026-04-26 11:36 | 44.67709 | 65.81369 | 36190 ft | 402 kts | 272° |
| 2026-04-26 11:37 | 44.68308 | 65.73541 | 36179 ft | 403 kts | 272° |
| 2026-04-26 11:37 | 44.68902 | 65.65715 | 36194 ft | 403 kts | 272° |
| 2026-04-26 11:38 | 44.69691 | 65.57960 | 36185 ft | 407 kts | 280° |
| 2026-04-26 11:38 | 44.71768 | 65.50476 | 36194 ft | 415 kts | 292° |
| 2026-04-26 11:39 | 44.74521 | 65.43329 | 36188 ft | 416 kts | 292° |
| 2026-04-26 11:39 | 44.77272 | 65.36180 | 36185 ft | 415 kts | 292° |
| 2026-04-26 11:40 | 44.79986 | 65.29035 | 36191 ft | 414 kts | 292° |
| 2026-04-26 11:40 | 44.82692 | 65.21861 | 36193 ft | 414 kts | 292° |
| 2026-04-26 11:42 | 44.93334 | 64.93260 | 36203 ft | 410 kts | 290° |
| 2026-04-26 11:43 | 44.95759 | 64.85974 | 36200 ft | 410 kts | 289° |
| 2026-04-26 11:43 | 44.98181 | 64.78693 | 36201 ft | 410 kts | 290° |
| 2026-04-26 11:44 | 45.00627 | 64.71405 | 36207 ft | 410 kts | 290° |
| 2026-04-26 11:44 | 45.03068 | 64.64117 | 36203 ft | 410 kts | 290° |
| 2026-04-26 11:45 | 45.05501 | 64.56826 | 36205 ft | 410 kts | 290° |
| 2026-04-26 11:45 | 45.07919 | 64.49558 | 36205 ft | 410 kts | 290° |
| 2026-04-26 11:46 | 45.10345 | 64.42245 | 36215 ft | 411 kts | 290° |
| 2026-04-26 11:46 | 45.12771 | 64.34911 | 36203 ft | 411 kts | 290° |
| 2026-04-26 11:47 | 45.15192 | 64.27573 | 36211 ft | 412 kts | 290° |
| 2026-04-26 11:47 | 45.17614 | 64.20210 | 36210 ft | 412 kts | 290° |
| 2026-04-26 11:48 | 45.20033 | 64.12837 | 36211 ft | 412 kts | 290° |
| 2026-04-26 11:48 | 45.22450 | 64.05450 | 36210 ft | 413 kts | 290° |
| 2026-04-26 11:49 | 45.24848 | 63.98100 | 36207 ft | 413 kts | 290° |
| 2026-04-26 11:49 | 45.27253 | 63.90710 | 36208 ft | 413 kts | 290° |
| 2026-04-26 11:50 | 45.29662 | 63.83283 | 36212 ft | 413 kts | 290° |
| 2026-04-26 11:50 | 45.32056 | 63.75884 | 36214 ft | 413 kts | 290° |
| 2026-04-26 11:51 | 45.34445 | 63.68476 | 36212 ft | 412 kts | 290° |
| 2026-04-26 11:51 | 45.36834 | 63.61050 | 36211 ft | 412 kts | 290° |
| 2026-04-26 11:52 | 45.38812 | 63.54884 | 36206 ft | 412 kts | 290° |
| 2026-04-26 11:52 | 45.41576 | 63.46242 | 36207 ft | 412 kts | 290° |
| 2026-04-26 11:53 | 45.43941 | 63.38826 | 36207 ft | 411 kts | 290° |
| 2026-04-26 11:54 | 45.47473 | 63.27710 | 36208 ft | 411 kts | 289° |
| 2026-04-26 11:54 | 45.49828 | 63.20273 | 36207 ft | 411 kts | 289° |
| 2026-04-26 11:55 | 45.52169 | 63.12859 | 36213 ft | 411 kts | 289° |
| 2026-04-26 11:55 | 45.54509 | 63.05422 | 36209 ft | 411 kts | 289° |
| 2026-04-26 11:56 | 45.56831 | 62.98026 | 36213 ft | 410 kts | 289° |
| 2026-04-26 11:56 | 45.59157 | 62.90593 | 36211 ft | 410 kts | 289° |
| 2026-04-26 11:57 | 45.61480 | 62.83150 | 36211 ft | 410 kts | 289° |
| 2026-04-26 11:57 | 45.63799 | 62.75696 | 36212 ft | 410 kts | 289° |
| 2026-04-26 11:58 | 45.66113 | 62.68237 | 36211 ft | 410 kts | 289° |
| 2026-04-26 11:58 | 45.68420 | 62.60781 | 36210 ft | 410 kts | 289° |
| 2026-04-26 11:59 | 45.70724 | 62.53310 | 36211 ft | 410 kts | 289° |
| 2026-04-26 11:59 | 45.73021 | 62.45839 | 36212 ft | 411 kts | 289° |
| 2026-04-26 12:00 | 45.75306 | 62.38387 | 36214 ft | 411 kts | 289° |
| 2026-04-26 12:00 | 45.77597 | 62.30892 | 36215 ft | 411 kts | 289° |
| 2026-04-26 12:01 | 45.79891 | 62.23370 | 36217 ft | 412 kts | 289° |
| 2026-04-26 12:01 | 45.82184 | 62.15827 | 36214 ft | 413 kts | 289° |
| 2026-04-26 12:02 | 45.84003 | 62.08084 | 36224 ft | 408 kts | 281° |
| 2026-04-26 12:02 | 45.85361 | 62.00163 | 36222 ft | 409 kts | 281° |
| 2026-04-26 12:03 | 45.86723 | 61.92241 | 36230 ft | 410 kts | 281° |
| 2026-04-26 12:03 | 45.88102 | 61.84298 | 36222 ft | 411 kts | 281° |
| 2026-04-26 12:04 | 45.89485 | 61.76337 | 36217 ft | 411 kts | 281° |
| 2026-04-26 12:04 | 45.90862 | 61.68380 | 36219 ft | 411 kts | 281° |
| 2026-04-26 12:05 | 45.92237 | 61.60395 | 36226 ft | 412 kts | 281° |
| 2026-04-26 12:05 | 45.93598 | 61.52456 | 36222 ft | 412 kts | 281° |
| 2026-04-26 12:06 | 45.94964 | 61.44460 | 36224 ft | 412 kts | 281° |
| 2026-04-26 12:06 | 45.96322 | 61.36446 | 36225 ft | 412 kts | 281° |
| 2026-04-26 12:07 | 45.97668 | 61.28429 | 36502 ft | 412 kts | 280° |
| 2026-04-26 12:07 | 45.98336 | 61.24442 | 36746 ft | 410 kts | 280° |
| 2026-04-26 12:07 | 45.99004 | 61.20440 | 36955 ft | 410 kts | 280° |
| 2026-04-26 12:07 | 45.99669 | 61.16451 | 37084 ft | 411 kts | 280° |
| 2026-04-26 12:08 | 46.00331 | 61.12470 | 37231 ft | 411 kts | 280° |
| 2026-04-26 12:08 | 46.00998 | 61.08451 | 37420 ft | 411 kts | 280° |
| 2026-04-26 12:08 | 46.01650 | 61.04512 | 37587 ft | 410 kts | 280° |
| 2026-04-26 12:08 | 46.02312 | 61.00502 | 37735 ft | 411 kts | 280° |
| 2026-04-26 12:09 | 46.02971 | 60.96501 | 37859 ft | 411 kts | 280° |
| 2026-04-26 12:09 | 46.03628 | 60.92503 | 38032 ft | 411 kts | 280° |
| 2026-04-26 12:09 | 46.04285 | 60.88503 | 38181 ft | 411 kts | 280° |
| 2026-04-26 12:10 | 46.05597 | 60.80471 | 38224 ft | 413 kts | 280° |
| 2026-04-26 12:10 | 46.06696 | 60.73717 | 38232 ft | 412 kts | 280° |
| 2026-04-26 12:11 | 46.07990 | 60.65734 | 38226 ft | 411 kts | 280° |
| 2026-04-26 12:11 | 46.09284 | 60.57710 | 38229 ft | 410 kts | 280° |
| 2026-04-26 12:12 | 46.10566 | 60.49717 | 38231 ft | 410 kts | 280° |
| 2026-04-26 12:12 | 46.11843 | 60.41719 | 38229 ft | 409 kts | 280° |
| 2026-04-26 12:13 | 46.13114 | 60.33720 | 38234 ft | 409 kts | 280° |
| 2026-04-26 12:13 | 46.14381 | 60.25708 | 38231 ft | 409 kts | 280° |
| 2026-04-26 12:14 | 46.15634 | 60.17744 | 38232 ft | 410 kts | 280° |
| 2026-04-26 12:14 | 46.16899 | 60.09670 | 38229 ft | 410 kts | 279° |
| 2026-04-26 12:15 | 46.18144 | 60.01676 | 38232 ft | 411 kts | 279° |
| 2026-04-26 12:15 | 46.19393 | 59.93625 | 38229 ft | 412 kts | 279° |
| 2026-04-26 12:16 | 46.20639 | 59.85545 | 38232 ft | 412 kts | 279° |
| 2026-04-26 12:16 | 46.21883 | 59.77449 | 38223 ft | 413 kts | 279° |
| 2026-04-26 12:17 | 46.23121 | 59.69348 | 38221 ft | 413 kts | 279° |
| 2026-04-26 12:17 | 46.24356 | 59.61237 | 38217 ft | 413 kts | 279° |
| 2026-04-26 12:18 | 46.25585 | 59.53123 | 38223 ft | 413 kts | 279° |
| 2026-04-26 12:18 | 46.26808 | 59.45015 | 38222 ft | 413 kts | 279° |
| 2026-04-26 12:19 | 46.28025 | 59.36898 | 38215 ft | 413 kts | 279° |
| 2026-04-26 12:19 | 46.29236 | 59.28783 | 38219 ft | 413 kts | 279° |
| 2026-04-26 12:20 | 46.30434 | 59.20717 | 38228 ft | 412 kts | 279° |
| 2026-04-26 12:20 | 46.31630 | 59.12613 | 38223 ft | 412 kts | 279° |
| 2026-04-26 12:21 | 46.32822 | 59.04502 | 38231 ft | 412 kts | 279° |
| 2026-04-26 12:21 | 46.34006 | 58.96397 | 38225 ft | 412 kts | 279° |
| 2026-04-26 12:22 | 46.35186 | 58.88279 | 38225 ft | 412 kts | 279° |
| 2026-04-26 12:22 | 46.36360 | 58.80162 | 38220 ft | 412 kts | 279° |
| 2026-04-26 12:23 | 46.37529 | 58.72034 | 38223 ft | 412 kts | 279° |
| 2026-04-26 12:23 | 46.38691 | 58.63913 | 38218 ft | 412 kts | 279° |
| 2026-04-26 12:24 | 46.39848 | 58.55779 | 38226 ft | 412 kts | 279° |
| 2026-04-26 12:24 | 46.40991 | 58.47700 | 38224 ft | 412 kts | 279° |
| 2026-04-26 12:25 | 46.42707 | 58.35493 | 38227 ft | 412 kts | 279° |
| 2026-04-26 12:25 | 46.43844 | 58.27347 | 38221 ft | 412 kts | 278° |
| 2026-04-26 12:26 | 46.44978 | 58.19181 | 38218 ft | 413 kts | 279° |
| 2026-04-26 12:26 | 46.46104 | 58.11021 | 38221 ft | 413 kts | 278° |
| 2026-04-26 12:27 | 46.47223 | 58.02875 | 38219 ft | 413 kts | 278° |
| 2026-04-26 12:27 | 46.48332 | 57.94749 | 38223 ft | 413 kts | 278° |
| 2026-04-26 12:28 | 46.49441 | 57.86584 | 38223 ft | 413 kts | 278° |
| 2026-04-26 12:28 | 46.50545 | 57.78402 | 38226 ft | 413 kts | 278° |
| 2026-04-26 12:29 | 46.51646 | 57.70199 | 38227 ft | 413 kts | 278° |
| 2026-04-26 12:30 | 46.53284 | 57.57911 | 38223 ft | 413 kts | 278° |
| 2026-04-26 12:30 | 46.54371 | 57.49695 | 38224 ft | 413 kts | 278° |
| 2026-04-26 12:31 | 46.55986 | 57.37402 | 38222 ft | 413 kts | 278° |
| 2026-04-26 12:31 | 46.57053 | 57.29215 | 38222 ft | 413 kts | 278° |
| 2026-04-26 12:32 | 46.58118 | 57.21001 | 38221 ft | 413 kts | 278° |
| 2026-04-26 12:33 | 46.59701 | 57.08699 | 38222 ft | 413 kts | 278° |
| 2026-04-26 12:33 | 46.60743 | 57.00540 | 38221 ft | 413 kts | 278° |
| 2026-04-26 12:34 | 46.61791 | 56.92281 | 38222 ft | 413 kts | 278° |
| 2026-04-26 12:34 | 46.62821 | 56.84118 | 38224 ft | 413 kts | 278° |
| 2026-04-26 12:35 | 46.63854 | 56.75890 | 38221 ft | 413 kts | 278° |
| 2026-04-26 12:35 | 46.64878 | 56.67683 | 38218 ft | 413 kts | 278° |
| 2026-04-26 12:36 | 46.65890 | 56.59457 | 38222 ft | 413 kts | 278° |
| 2026-04-26 12:36 | 46.66895 | 56.51212 | 38221 ft | 413 kts | 278° |
| 2026-04-26 12:37 | 46.67894 | 56.42975 | 38220 ft | 413 kts | 278° |
| 2026-04-26 12:37 | 46.68884 | 56.34769 | 38227 ft | 414 kts | 278° |
| 2026-04-26 12:38 | 46.69873 | 56.26520 | 38217 ft | 414 kts | 278° |
| 2026-04-26 12:38 | 46.70855 | 56.18276 | 38223 ft | 414 kts | 278° |
| 2026-04-26 12:39 | 46.71833 | 56.10008 | 38213 ft | 414 kts | 278° |
| 2026-04-26 12:39 | 46.72805 | 56.01743 | 38210 ft | 414 kts | 278° |
| 2026-04-26 12:40 | 46.73773 | 55.93457 | 38208 ft | 414 kts | 278° |
| 2026-04-26 12:40 | 46.74736 | 55.85162 | 38206 ft | 414 kts | 278° |
| 2026-04-26 12:41 | 46.75692 | 55.76876 | 38218 ft | 414 kts | 278° |
| 2026-04-26 12:41 | 46.76643 | 55.68573 | 38209 ft | 415 kts | 278° |
| 2026-04-26 12:42 | 46.77586 | 55.60282 | 38209 ft | 415 kts | 278° |
| 2026-04-26 12:42 | 46.78524 | 55.51980 | 38223 ft | 415 kts | 278° |
| 2026-04-26 12:43 | 46.79456 | 55.43682 | 38221 ft | 415 kts | 278° |
| 2026-04-26 12:43 | 46.80378 | 55.35421 | 38211 ft | 414 kts | 278° |
| 2026-04-26 12:44 | 46.81300 | 55.27110 | 38215 ft | 414 kts | 278° |
| 2026-04-26 12:44 | 46.82224 | 55.18817 | 38210 ft | 414 kts | 278° |
| 2026-04-26 12:45 | 46.83146 | 55.10512 | 38221 ft | 414 kts | 278° |
| 2026-04-26 12:45 | 46.84061 | 55.02213 | 38204 ft | 414 kts | 278° |
| 2026-04-26 12:46 | 46.84971 | 54.93896 | 38218 ft | 414 kts | 278° |
| 2026-04-26 12:46 | 46.85871 | 54.85613 | 38203 ft | 413 kts | 278° |
| 2026-04-26 12:47 | 46.86768 | 54.77300 | 38196 ft | 413 kts | 278° |
| 2026-04-26 12:47 | 46.87656 | 54.69014 | 38214 ft | 413 kts | 278° |
| 2026-04-26 12:48 | 46.88533 | 54.60781 | 38209 ft | 412 kts | 278° |
| 2026-04-26 12:48 | 46.89404 | 54.52497 | 38198 ft | 412 kts | 278° |
| 2026-04-26 12:49 | 46.90261 | 54.44209 | 38209 ft | 412 kts | 277° |
| 2026-04-26 12:49 | 46.91111 | 54.35932 | 38200 ft | 412 kts | 277° |
| 2026-04-26 12:50 | 46.91957 | 54.27646 | 38199 ft | 412 kts | 277° |
| 2026-04-26 12:50 | 46.92798 | 54.19345 | 38198 ft | 412 kts | 277° |
| 2026-04-26 12:51 | 46.93632 | 54.11059 | 38216 ft | 412 kts | 277° |
| 2026-04-26 12:51 | 46.94462 | 54.02751 | 38201 ft | 412 kts | 277° |
| 2026-04-26 12:52 | 46.95285 | 53.94451 | 38203 ft | 413 kts | 277° |
| 2026-04-26 12:52 | 46.96105 | 53.86119 | 38203 ft | 413 kts | 277° |
| 2026-04-26 12:53 | 46.96916 | 53.77830 | 38204 ft | 414 kts | 277° |
| 2026-04-26 12:53 | 46.97726 | 53.69495 | 38201 ft | 414 kts | 277° |
| 2026-04-26 12:54 | 46.98532 | 53.61139 | 38199 ft | 414 kts | 277° |
| 2026-04-26 12:54 | 46.99331 | 53.52793 | 38201 ft | 414 kts | 277° |
| 2026-04-26 12:55 | 47.00126 | 53.44432 | 38200 ft | 414 kts | 277° |
| 2026-04-26 12:55 | 47.00914 | 53.36067 | 38202 ft | 413 kts | 277° |
| 2026-04-26 12:56 | 47.01694 | 53.27732 | 38196 ft | 413 kts | 277° |
| 2026-04-26 12:56 | 47.02469 | 53.19374 | 38198 ft | 412 kts | 277° |
| 2026-04-26 12:57 | 47.03234 | 53.11058 | 38195 ft | 412 kts | 277° |
| 2026-04-26 12:57 | 47.03987 | 53.02798 | 38189 ft | 411 kts | 277° |
| 2026-04-26 12:58 | 47.05113 | 52.90347 | 38189 ft | 410 kts | 277° |
| 2026-04-26 12:58 | 47.05729 | 52.83458 | 38184 ft | 409 kts | 277° |
| 2026-04-26 12:59 | 47.06461 | 52.75158 | 38178 ft | 408 kts | 277° |
| 2026-04-26 12:59 | 47.07179 | 52.66943 | 38177 ft | 408 kts | 276° |
| 2026-04-26 13:00 | 47.07894 | 52.58691 | 38173 ft | 408 kts | 276° |
| 2026-04-26 13:00 | 47.08605 | 52.50429 | 38172 ft | 407 kts | 276° |
| 2026-04-26 13:01 | 47.09311 | 52.42155 | 38171 ft | 407 kts | 276° |
| 2026-04-26 13:01 | 47.10006 | 52.33925 | 38164 ft | 408 kts | 276° |
| 2026-04-26 13:02 | 47.10699 | 52.25664 | 38171 ft | 408 kts | 276° |
| 2026-04-26 13:02 | 47.11380 | 52.17464 | 38166 ft | 408 kts | 276° |
| 2026-04-26 13:03 | 47.12066 | 52.09131 | 38176 ft | 409 kts | 276° |
| 2026-04-26 13:03 | 47.12742 | 52.00848 | 38183 ft | 409 kts | 276° |
| 2026-04-26 13:04 | 47.13410 | 51.92597 | 38188 ft | 410 kts | 276° |
| 2026-04-26 13:04 | 47.13919 | 51.84267 | 38179 ft | 410 kts | 268° |
| 2026-04-26 13:05 | 47.13093 | 51.76009 | 38178 ft | 411 kts | 256° |
| 2026-04-26 13:05 | 47.11030 | 51.68164 | 38182 ft | 413 kts | 249° |
| 2026-04-26 13:06 | 47.08752 | 51.60426 | 38178 ft | 412 kts | 249° |
| 2026-04-26 13:06 | 47.06487 | 51.52695 | 38167 ft | 412 kts | 249° |
| 2026-04-26 13:07 | 47.04244 | 51.44979 | 38160 ft | 412 kts | 249° |
| 2026-04-26 13:07 | 47.01998 | 51.37245 | 38150 ft | 411 kts | 249° |
| 2026-04-26 13:08 | 46.99757 | 51.29548 | 38146 ft | 411 kts | 249° |
| 2026-04-26 13:08 | 46.97510 | 51.21858 | 38146 ft | 410 kts | 249° |
| 2026-04-26 13:09 | 46.95276 | 51.14238 | 38138 ft | 409 kts | 249° |
| 2026-04-26 13:09 | 46.93027 | 51.06587 | 38143 ft | 409 kts | 249° |
| 2026-04-26 13:10 | 46.90780 | 50.98969 | 38144 ft | 408 kts | 249° |
| 2026-04-26 13:10 | 46.88530 | 50.91355 | 38141 ft | 408 kts | 249° |
| 2026-04-26 13:11 | 46.86269 | 50.83736 | 38147 ft | 408 kts | 249° |
| 2026-04-26 13:11 | 46.84004 | 50.76147 | 38144 ft | 408 kts | 249° |
| 2026-04-26 13:12 | 46.81731 | 50.68561 | 38140 ft | 408 kts | 249° |
| 2026-04-26 13:12 | 46.79454 | 50.60980 | 38144 ft | 408 kts | 249° |
| 2026-04-26 13:13 | 46.77167 | 50.53387 | 38139 ft | 408 kts | 248° |
| 2026-04-26 13:13 | 46.74874 | 50.45794 | 38139 ft | 409 kts | 248° |
| 2026-04-26 13:14 | 46.72576 | 50.38206 | 38145 ft | 409 kts | 248° |
| 2026-04-26 13:14 | 46.70273 | 50.30628 | 38142 ft | 409 kts | 248° |
| 2026-04-26 13:15 | 46.67977 | 50.23094 | 38139 ft | 410 kts | 248° |
| 2026-04-26 13:15 | 46.65652 | 50.15487 | 38141 ft | 410 kts | 248° |
| 2026-04-26 13:16 | 46.63331 | 50.07911 | 38138 ft | 410 kts | 248° |
| 2026-04-26 13:16 | 46.60999 | 50.00325 | 38130 ft | 411 kts | 248° |
| 2026-04-26 13:17 | 46.57504 | 49.89003 | 38130 ft | 411 kts | 248° |
| 2026-04-26 13:18 | 46.53986 | 49.77647 | 38123 ft | 411 kts | 248° |
| 2026-04-26 13:19 | 46.50457 | 49.66300 | 38135 ft | 410 kts | 248° |
| 2026-04-26 13:19 | 46.48104 | 49.58765 | 38134 ft | 410 kts | 248° |
| 2026-04-26 13:20 | 46.45744 | 49.51227 | 38128 ft | 410 kts | 247° |
| 2026-04-26 13:20 | 46.43383 | 49.43710 | 38134 ft | 410 kts | 247° |
| 2026-04-26 13:21 | 46.41015 | 49.36191 | 38135 ft | 409 kts | 247° |
| 2026-04-26 13:21 | 46.38664 | 49.28744 | 38126 ft | 409 kts | 247° |
| 2026-04-26 13:22 | 46.36291 | 49.21252 | 38131 ft | 409 kts | 247° |
| 2026-04-26 13:22 | 46.34037 | 49.13702 | 38129 ft | 408 kts | 250° |
| 2026-04-26 13:23 | 46.31946 | 49.06064 | 38122 ft | 408 kts | 250° |
| 2026-04-26 13:23 | 46.29840 | 48.98432 | 38119 ft | 408 kts | 250° |
| 2026-04-26 13:24 | 46.27709 | 48.90826 | 38116 ft | 409 kts | 249° |
| 2026-04-26 13:24 | 46.25561 | 48.83213 | 38118 ft | 409 kts | 249° |
| 2026-04-26 13:25 | 46.23407 | 48.75606 | 38117 ft | 409 kts | 249° |
| 2026-04-26 13:25 | 46.21246 | 48.67989 | 38108 ft | 410 kts | 249° |
| 2026-04-26 13:26 | 46.19079 | 48.60382 | 38119 ft | 410 kts | 249° |
| 2026-04-26 13:26 | 46.17015 | 48.52773 | 38112 ft | 410 kts | 250° |
| 2026-04-26 13:27 | 46.14995 | 48.45056 | 38109 ft | 410 kts | 250° |
| 2026-04-26 13:27 | 46.12967 | 48.37354 | 38107 ft | 411 kts | 250° |
| 2026-04-26 13:28 | 46.10927 | 48.29670 | 38102 ft | 411 kts | 250° |
| 2026-04-26 13:28 | 46.08875 | 48.21986 | 38105 ft | 411 kts | 250° |
| 2026-04-26 13:29 | 46.06827 | 48.14349 | 38103 ft | 411 kts | 250° |
| 2026-04-26 13:29 | 46.04763 | 48.06676 | 38106 ft | 411 kts | 250° |
| 2026-04-26 13:30 | 46.02694 | 47.99008 | 38104 ft | 411 kts | 250° |
| 2026-04-26 13:30 | 46.00616 | 47.91331 | 38101 ft | 411 kts | 250° |
| 2026-04-26 13:31 | 45.98539 | 47.83684 | 38102 ft | 411 kts | 250° |
| 2026-04-26 13:31 | 45.96451 | 47.76019 | 38096 ft | 411 kts | 250° |
| 2026-04-26 13:32 | 45.94365 | 47.68386 | 38092 ft | 411 kts | 250° |
| 2026-04-26 13:32 | 45.92273 | 47.60756 | 38087 ft | 410 kts | 250° |
| 2026-04-26 13:33 | 45.90174 | 47.53122 | 38088 ft | 410 kts | 250° |
| 2026-04-26 13:33 | 45.88073 | 47.45508 | 38093 ft | 410 kts | 250° |
| 2026-04-26 13:34 | 45.85984 | 47.37960 | 38087 ft | 410 kts | 249° |
| 2026-04-26 13:34 | 45.83875 | 47.30366 | 38081 ft | 409 kts | 249° |
| 2026-04-26 13:35 | 45.81767 | 47.22798 | 38081 ft | 409 kts | 249° |
| 2026-04-26 13:35 | 45.79652 | 47.15225 | 38077 ft | 409 kts | 249° |
| 2026-04-26 13:36 | 45.77530 | 47.07654 | 38074 ft | 409 kts | 249° |
| 2026-04-26 13:36 | 45.75403 | 47.00089 | 38069 ft | 409 kts | 249° |
| 2026-04-26 13:37 | 45.73276 | 46.92543 | 38061 ft | 409 kts | 249° |
| 2026-04-26 13:37 | 45.71138 | 46.84979 | 38064 ft | 409 kts | 249° |
| 2026-04-26 13:38 | 45.68999 | 46.77444 | 38062 ft | 409 kts | 249° |
| 2026-04-26 13:38 | 45.66841 | 46.69898 | 38053 ft | 410 kts | 249° |
| 2026-04-26 13:39 | 45.64692 | 46.62406 | 38046 ft | 410 kts | 249° |
| 2026-04-26 13:39 | 45.62528 | 46.54881 | 38045 ft | 410 kts | 249° |
| 2026-04-26 13:40 | 45.60352 | 46.47337 | 38035 ft | 410 kts | 249° |
| 2026-04-26 13:40 | 45.58178 | 46.39820 | 38032 ft | 410 kts | 249° |
| 2026-04-26 13:41 | 45.55997 | 46.32300 | 38033 ft | 410 kts | 249° |
| 2026-04-26 13:41 | 45.53807 | 46.24773 | 38030 ft | 410 kts | 249° |
| 2026-04-26 13:42 | 45.51613 | 46.17256 | 38023 ft | 410 kts | 249° |
| 2026-04-26 13:42 | 45.49427 | 46.09787 | 38027 ft | 410 kts | 248° |
| 2026-04-26 13:43 | 45.47223 | 46.02279 | 38015 ft | 411 kts | 248° |
| 2026-04-26 13:43 | 45.45010 | 45.94763 | 38016 ft | 411 kts | 248° |
| 2026-04-26 13:44 | 45.42795 | 45.87264 | 38017 ft | 411 kts | 248° |
| 2026-04-26 13:44 | 45.40570 | 45.79754 | 38011 ft | 411 kts | 248° |
| 2026-04-26 13:45 | 45.38354 | 45.72296 | 38011 ft | 411 kts | 248° |
| 2026-04-26 13:45 | 45.36124 | 45.64811 | 38003 ft | 411 kts | 248° |
| 2026-04-26 13:46 | 45.33880 | 45.57304 | 38004 ft | 411 kts | 248° |
| 2026-04-26 13:46 | 45.31641 | 45.49833 | 38000 ft | 411 kts | 248° |
| 2026-04-26 13:47 | 45.29393 | 45.42349 | 38000 ft | 411 kts | 248° |
| 2026-04-26 13:47 | 45.27498 | 45.36143 | 37997 ft | 412 kts | 245° |
| 2026-04-26 13:48 | 45.24690 | 45.29063 | 37994 ft | 413 kts | 241° |
| 2026-04-26 13:48 | 45.21799 | 45.22026 | 37993 ft | 413 kts | 240° |
| 2026-04-26 13:49 | 45.18432 | 45.15385 | 37994 ft | 414 kts | 235° |
| 2026-04-26 13:49 | 45.14940 | 45.08882 | 37988 ft | 414 kts | 235° |
| 2026-04-26 13:50 | 45.11482 | 45.02416 | 37988 ft | 414 kts | 235° |
| 2026-04-26 13:50 | 45.08012 | 44.95909 | 37985 ft | 414 kts | 235° |
| 2026-04-26 13:51 | 45.04543 | 44.89406 | 37983 ft | 414 kts | 235° |
| 2026-04-26 13:51 | 45.01068 | 44.82907 | 37983 ft | 414 kts | 235° |
| 2026-04-26 13:51 | 44.99322 | 44.79645 | 37638 ft | 420 kts | 235° |
| 2026-04-26 13:52 | 44.97554 | 44.76346 | 37157 ft | 420 kts | 235° |
| 2026-04-26 13:52 | 44.95793 | 44.73067 | 36602 ft | 417 kts | 235° |
| 2026-04-26 13:52 | 44.94045 | 44.69815 | 35998 ft | 416 kts | 235° |
| 2026-04-26 13:52 | 44.92297 | 44.66566 | 35368 ft | 416 kts | 235° |
| 2026-04-26 13:53 | 44.90543 | 44.63308 | 34726 ft | 416 kts | 235° |
| 2026-04-26 13:53 | 44.88797 | 44.60069 | 34092 ft | 417 kts | 235° |
| 2026-04-26 13:53 | 44.87080 | 44.56788 | 33536 ft | 412 kts | 240° |
| 2026-04-26 13:53 | 44.85930 | 44.53152 | 33061 ft | 404 kts | 254° |
| 2026-04-26 13:54 | 44.85356 | 44.49299 | 32582 ft | 400 kts | 263° |
| 2026-04-26 13:54 | 44.85334 | 44.45410 | 32140 ft | 397 kts | 276° |
| 2026-04-26 13:54 | 44.85772 | 44.41634 | 31706 ft | 393 kts | 278° |
| 2026-04-26 13:55 | 44.86724 | 44.34093 | 30805 ft | 387 kts | 278° |
| 2026-04-26 13:55 | 44.87031 | 44.31634 | 30515 ft | 384 kts | 278° |
| 2026-04-26 13:55 | 44.88079 | 44.23019 | 29422 ft | 377 kts | 277° |
| 2026-04-26 13:56 | 44.88508 | 44.19414 | 28985 ft | 372 kts | 277° |
| 2026-04-26 13:56 | 44.88932 | 44.15817 | 28548 ft | 368 kts | 277° |
| 2026-04-26 13:56 | 44.89347 | 44.12276 | 28099 ft | 364 kts | 277° |
| 2026-04-26 13:56 | 44.89758 | 44.08753 | 27672 ft | 361 kts | 277° |
| 2026-04-26 13:57 | 44.90157 | 44.05322 | 27254 ft | 358 kts | 277° |
| 2026-04-26 13:57 | 44.90557 | 44.01879 | 26813 ft | 355 kts | 277° |
| 2026-04-26 13:57 | 44.90953 | 43.98453 | 26395 ft | 352 kts | 277° |
| 2026-04-26 13:57 | 44.91344 | 43.95063 | 25978 ft | 349 kts | 277° |
| 2026-04-26 13:58 | 44.91733 | 43.91688 | 25563 ft | 347 kts | 277° |
| 2026-04-26 13:58 | 44.92116 | 43.88346 | 25157 ft | 344 kts | 277° |
| 2026-04-26 13:58 | 44.92498 | 43.85010 | 24750 ft | 342 kts | 277° |
| 2026-04-26 13:58 | 44.92876 | 43.81707 | 24351 ft | 340 kts | 277° |
| 2026-04-26 13:59 | 44.93247 | 43.78441 | 23957 ft | 338 kts | 277° |
| 2026-04-26 13:59 | 44.93620 | 43.75164 | 23554 ft | 336 kts | 277° |
| 2026-04-26 13:59 | 44.93987 | 43.71922 | 23087 ft | 335 kts | 277° |
| 2026-04-26 14:00 | 44.95071 | 43.62307 | 21878 ft | 326 kts | 276° |
| 2026-04-26 14:00 | 44.95426 | 43.59139 | 21481 ft | 324 kts | 276° |
| 2026-04-26 14:00 | 44.95657 | 43.57075 | 21210 ft | 322 kts | 276° |
| 2026-04-26 14:01 | 44.96122 | 43.52908 | 20698 ft | 320 kts | 276° |
| 2026-04-26 14:01 | 44.96467 | 43.49805 | 20314 ft | 318 kts | 276° |
| 2026-04-26 14:01 | 44.96808 | 43.46733 | 19940 ft | 317 kts | 276° |
| 2026-04-26 14:01 | 44.97150 | 43.43648 | 19568 ft | 317 kts | 276° |
| 2026-04-26 14:02 | 44.97485 | 43.40612 | 19190 ft | 321 kts | 276° |
| 2026-04-26 14:02 | 44.97833 | 43.37453 | 18811 ft | 328 kts | 276° |
| 2026-04-26 14:02 | 44.98182 | 43.34272 | 18414 ft | 328 kts | 276° |
| 2026-04-26 14:02 | 44.98530 | 43.31082 | 17868 ft | 329 kts | 276° |
| 2026-04-26 14:03 | 44.98873 | 43.27905 | 17416 ft | 327 kts | 276° |
| 2026-04-26 14:03 | 44.99212 | 43.24741 | 16975 ft | 324 kts | 276° |
| 2026-04-26 14:03 | 44.99547 | 43.21606 | 16566 ft | 321 kts | 276° |
| 2026-04-26 14:03 | 44.99880 | 43.18489 | 16178 ft | 318 kts | 276° |
| 2026-04-26 14:04 | 45.00207 | 43.15421 | 15775 ft | 316 kts | 276° |
| 2026-04-26 14:04 | 45.00527 | 43.12408 | 15598 ft | 302 kts | 276° |
| 2026-04-26 14:04 | 45.00832 | 43.09555 | 15478 ft | 285 kts | 276° |
| 2026-04-26 14:04 | 45.01127 | 43.06765 | 14763 ft | 289 kts | 275° |
| 2026-04-26 14:05 | 45.01422 | 43.03942 | 14068 ft | 293 kts | 275° |
| 2026-04-26 14:05 | 45.01721 | 43.01083 | 13349 ft | 295 kts | 275° |
| 2026-04-26 14:05 | 45.02021 | 42.98220 | 12706 ft | 293 kts | 275° |
| 2026-04-26 14:05 | 45.02319 | 42.95376 | 12066 ft | 291 kts | 275° |
| 2026-04-26 14:06 | 45.02615 | 42.92552 | 11502 ft | 288 kts | 275° |
| 2026-04-26 14:06 | 45.02906 | 42.89763 | 11001 ft | 283 kts | 275° |
| 2026-04-26 14:06 | 45.03189 | 42.87037 | 10514 ft | 279 kts | 275° |
| 2026-04-26 14:06 | 45.03470 | 42.84339 | 10033 ft | 275 kts | 275° |
| 2026-04-26 14:07 | 45.03743 | 42.81700 | 9529 ft | 271 kts | 275° |
| 2026-04-26 14:07 | 45.04011 | 42.79096 | 9255 ft | 261 kts | 275° |
| 2026-04-26 14:07 | 45.04274 | 42.76551 | 9256 ft | 259 kts | 275° |
| 2026-04-26 14:07 | 45.04726 | 42.74090 | 9267 ft | 262 kts | 288° |
| 2026-04-26 14:08 | 45.05486 | 42.71733 | 9266 ft | 263 kts | 290° |
| 2026-04-26 14:08 | 45.06255 | 42.69436 | 9007 ft | 260 kts | 291° |
| 2026-04-26 14:08 | 45.07037 | 42.67094 | 8467 ft | 261 kts | 291° |
| 2026-04-26 14:08 | 45.07813 | 42.64748 | 7848 ft | 265 kts | 291° |
| 2026-04-26 14:09 | 45.08583 | 42.62402 | 7287 ft | 268 kts | 292° |
| 2026-04-26 14:09 | 45.09367 | 42.60007 | 6784 ft | 267 kts | 292° |
| 2026-04-26 14:09 | 45.10156 | 42.57589 | 6293 ft | 268 kts | 293° |
| 2026-04-26 14:09 | 45.10936 | 42.55188 | 5688 ft | 271 kts | 292° |
| 2026-04-26 14:10 | 45.11719 | 42.52774 | 5198 ft | 272 kts | 292° |
| 2026-04-26 14:10 | 45.12495 | 42.50378 | 4960 ft | 263 kts | 292° |
| 2026-04-26 14:10 | 45.13233 | 42.48100 | 4843 ft | 245 kts | 292° |
| 2026-04-26 14:10 | 45.13918 | 42.45983 | 4696 ft | 228 kts | 292° |
| 2026-04-26 14:11 | 45.15139 | 42.42205 | 4571 ft | 195 kts | 292° |
| 2026-04-26 14:11 | 45.15662 | 42.40453 | 4562 ft | 190 kts | 281° |
| 2026-04-26 14:11 | 45.15566 | 42.38699 | 4568 ft | 180 kts | 239° |
| 2026-04-26 14:12 | 45.14721 | 42.37444 | 4546 ft | 182 kts | 226° |
| 2026-04-26 14:12 | 45.14142 | 42.35765 | 4319 ft | 194 kts | 253° |
| 2026-04-26 14:12 | 45.13931 | 42.33923 | 4275 ft | 180 kts | 261° |
| 2026-04-26 14:12 | 45.13862 | 42.32197 | 4070 ft | 178 kts | 264° |
| 2026-04-26 14:13 | 45.13864 | 42.28687 | 3426 ft | 182 kts | 272° |
| 2026-04-26 14:13 | 45.13883 | 42.26962 | 3301 ft | 165 kts | 259° |
| 2026-04-26 14:13 | 45.13714 | 42.25425 | 3182 ft | 153 kts | 252° |
| 2026-04-26 14:14 | 45.13451 | 42.23975 | 2935 ft | 153 kts | 249° |
| 2026-04-26 14:14 | 45.13142 | 42.22536 | 2768 ft | 152 kts | 249° |
| 2026-04-26 14:14 | 45.12858 | 42.21110 | 2642 ft | 150 kts | 249° |
| 2026-04-26 14:14 | 45.12553 | 42.19676 | 2409 ft | 156 kts | 249° |
| 2026-04-26 14:15 | 45.12278 | 42.18329 | 2549 ft | 127 kts | 250° |
| 2026-04-26 14:15 | 45.12044 | 42.17136 | 2178 ft | 124 kts | 248° |
| 2026-04-26 14:15 | 45.11755 | 42.15835 | 2101 ft | 147 kts | 252° |
| 2026-04-26 14:15 | 45.11550 | 42.14462 | 1752 ft | 138 kts | 255° |
| 2026-04-26 14:16 | 45.11287 | 42.13222 | 1534 ft | 134 kts | 248° |
| 2026-04-26 14:16 | 45.11056 | 42.12001 | 1492 ft | 113 kts | 256° |
| 2026-04-26 14:16 | 45.10895 | 42.11123 | 1478 ft | 71 kts | 255° |
| 2026-04-26 14:16 | 45.10803 | 42.10590 | 1497 ft | 50 kts | 256° |
| 2026-04-26 14:17 | 45.10719 | 42.10129 | 1484 ft | 44 kts | 256° |
| 2026-04-26 14:17 | 45.10681 | 42.09917 | 1494 ft | 9 kts | 256° |
| 2026-04-26 14:17 | 45.10665 | 42.09818 | 1483 ft | 12 kts | 256° |
| 2026-04-26 14:17 | 45.10660 | 42.09702 | 1494 ft | 12 kts | 299° |
| 2026-04-26 14:18 | 45.10741 | 42.09648 | 1490 ft | 15 kts | 345° |
| 2026-04-26 14:18 | 45.10845 | 42.09610 | 1480 ft | 13 kts | 352° |
| 2026-04-26 14:18 | 45.10895 | 42.09676 | 1482 ft | 11 kts | 76° |
| 2026-04-26 14:18 | 45.10913 | 42.09793 | 1487 ft | 14 kts | 78° |
| 2026-04-26 14:19 | 45.10937 | 42.09932 | 1494 ft | 16 kts | 74° |
| 2026-04-26 14:19 | 45.10966 | 42.09994 | 1491 ft | 3 kts | 15° |
| 2026-04-26 14:19 | 45.10975 | 42.09995 | 1494 ft | 3 kts | 5° |
| 2026-04-26 14:19 | 45.10998 | 42.10001 | 1482 ft | 3 kts | 22° |
| 2026-04-26 14:20 | 45.11008 | 42.10024 | 1489 ft | 3 kts | 70° |
| 2026-04-26 14:20 | 45.11015 | 42.10061 | 1494 ft | 0 kts | 74° |